sensor_id;sensor_type;location;lat;lon;timestamp;P1;durP1;ratioP1;P2;durP2;ratioP2
73168;SDS011;61379;59.732;30.468;2023-07-02T00:01:34;11.20;;;9.73;;
73168;SDS011;61379;59.732;30.468;2023-07-02T00:04:01;9.25;;;8.35;;
73168;SDS011;61379;59.732;30.468;2023-07-02T00:06:28;9.38;;;8.45;;
73168;SDS011;61379;59.732;30.468;2023-07-02T00:08:59;10.18;;;9.05;;
73168;SDS011;61379;59.732;30.468;2023-07-02T00:11:25;10.35;;;9.35;;
73168;SDS011;61379;59.732;30.468;2023-07-02T00:13:52;9.52;;;8.52;;
73168;SDS011;61379;59.732;30.468;2023-07-02T00:16:19;10.50;;;9.35;;
73168;SDS011;61379;59.732;30.468;2023-07-02T00:18:46;10.15;;;9.25;;
73168;SDS011;61379;59.732;30.468;2023-07-02T00:21:17;10.52;;;9.02;;
73168;SDS011;61379;59.732;30.468;2023-07-02T00:23:44;10.80;;;9.30;;
73168;SDS011;61379;59.732;30.468;2023-07-02T00:26:12;12.20;;;9.20;;
73168;SDS011;61379;59.732;30.468;2023-07-02T00:28:39;11.57;;;9.48;;
73168;SDS011;61379;59.732;30.468;2023-07-02T00:31:06;11.25;;;9.02;;
73168;SDS011;61379;59.732;30.468;2023-07-02T00:33:34;10.98;;;8.57;;
73168;SDS011;61379;59.732;30.468;2023-07-02T00:36:00;9.60;;;8.68;;
73168;SDS011;61379;59.732;30.468;2023-07-02T00:38:27;13.48;;;9.95;;
73168;SDS011;61379;59.732;30.468;2023-07-02T00:40:54;11.65;;;9.90;;
73168;SDS011;61379;59.732;30.468;2023-07-02T00:43:22;11.13;;;9.38;;
73168;SDS011;61379;59.732;30.468;2023-07-02T00:45:49;11.90;;;10.50;;
73168;SDS011;61379;59.732;30.468;2023-07-02T00:48:16;11.02;;;10.10;;
73168;SDS011;61379;59.732;30.468;2023-07-02T00:50:42;10.57;;;9.23;;
73168;SDS011;61379;59.732;30.468;2023-07-02T00:53:09;10.40;;;9.50;;
73168;SDS011;61379;59.732;30.468;2023-07-02T00:55:36;12.85;;;10.95;;
73168;SDS011;61379;59.732;30.468;2023-07-02T00:58:03;10.43;;;9.15;;
73168;SDS011;61379;59.732;30.468;2023-07-02T01:00:31;13.70;;;9.65;;
73168;SDS011;61379;59.732;30.468;2023-07-02T01:02:57;10.73;;;9.20;;
73168;SDS011;61379;59.732;30.468;2023-07-02T01:05:25;10.30;;;9.23;;
73168;SDS011;61379;59.732;30.468;2023-07-02T01:08:00;14.07;;;9.52;;
73168;SDS011;61379;59.732;30.468;2023-07-02T01:10:27;10.13;;;9.13;;
73168;SDS011;61379;59.732;30.468;2023-07-02T01:12:56;10.55;;;9.45;;
73168;SDS011;61379;59.732;30.468;2023-07-02T01:15:23;11.30;;;9.85;;
73168;SDS011;61379;59.732;30.468;2023-07-02T01:17:52;11.05;;;9.90;;
73168;SDS011;61379;59.732;30.468;2023-07-02T01:20:21;11.25;;;10.18;;
73168;SDS011;61379;59.732;30.468;2023-07-02T01:22:48;10.50;;;9.45;;
73168;SDS011;61379;59.732;30.468;2023-07-02T01:25:16;10.32;;;9.40;;
73168;SDS011;61379;59.732;30.468;2023-07-02T01:27:45;11.40;;;9.07;;
73168;SDS011;61379;59.732;30.468;2023-07-02T01:30:12;10.82;;;9.52;;
73168;SDS011;61379;59.732;30.468;2023-07-02T01:32:38;9.07;;;8.27;;
73168;SDS011;61379;59.732;30.468;2023-07-02T01:35:06;11.35;;;10.15;;
73168;SDS011;61379;59.732;30.468;2023-07-02T01:37:34;10.43;;;9.30;;
73168;SDS011;61379;59.732;30.468;2023-07-02T01:40:03;10.63;;;9.57;;
73168;SDS011;61379;59.732;30.468;2023-07-02T01:42:31;10.55;;;9.65;;
73168;SDS011;61379;59.732;30.468;2023-07-02T01:44:58;18.63;;;10.82;;
73168;SDS011;61379;59.732;30.468;2023-07-02T01:47:25;14.20;;;11.25;;
73168;SDS011;61379;59.732;30.468;2023-07-02T01:49:51;11.43;;;10.25;;
73168;SDS011;61379;59.732;30.468;2023-07-02T01:52:18;18.42;;;11.20;;
73168;SDS011;61379;59.732;30.468;2023-07-02T01:54:46;11.90;;;10.65;;
73168;SDS011;61379;59.732;30.468;2023-07-02T01:57:13;12.23;;;9.85;;
73168;SDS011;61379;59.732;30.468;2023-07-02T01:59:40;14.23;;;10.60;;
73168;SDS011;61379;59.732;30.468;2023-07-02T02:02:06;12.27;;;9.63;;
73168;SDS011;61379;59.732;30.468;2023-07-02T02:04:33;10.90;;;9.60;;
73168;SDS011;61379;59.732;30.468;2023-07-02T02:07:00;12.35;;;10.05;;
73168;SDS011;61379;59.732;30.468;2023-07-02T02:09:27;13.02;;;9.85;;
73168;SDS011;61379;59.732;30.468;2023-07-02T02:11:57;11.68;;;9.25;;
73168;SDS011;61379;59.732;30.468;2023-07-02T02:14:24;11.25;;;10.05;;
73168;SDS011;61379;59.732;30.468;2023-07-02T02:16:51;10.43;;;9.30;;
73168;SDS011;61379;59.732;30.468;2023-07-02T02:19:18;9.13;;;8.27;;
73168;SDS011;61379;59.732;30.468;2023-07-02T02:21:45;10.55;;;9.18;;
73168;SDS011;61379;59.732;30.468;2023-07-02T02:24:12;10.00;;;9.05;;
73168;SDS011;61379;59.732;30.468;2023-07-02T02:26:38;12.20;;;9.55;;
73168;SDS011;61379;59.732;30.468;2023-07-02T02:29:07;11.40;;;10.05;;
73168;SDS011;61379;59.732;30.468;2023-07-02T02:31:34;9.50;;;8.60;;
73168;SDS011;61379;59.732;30.468;2023-07-02T02:34:01;10.80;;;8.15;;
73168;SDS011;61379;59.732;30.468;2023-07-02T02:36:27;10.57;;;7.55;;
73168;SDS011;61379;59.732;30.468;2023-07-02T02:38:54;10.02;;;8.77;;
73168;SDS011;61379;59.732;30.468;2023-07-02T02:41:21;11.63;;;9.02;;
73168;SDS011;61379;59.732;30.468;2023-07-02T02:43:47;11.43;;;9.43;;
73168;SDS011;61379;59.732;30.468;2023-07-02T02:46:20;8.07;;;7.38;;
73168;SDS011;61379;59.732;30.468;2023-07-02T02:48:47;8.95;;;8.05;;
73168;SDS011;61379;59.732;30.468;2023-07-02T02:51:14;10.75;;;9.10;;
73168;SDS011;61379;59.732;30.468;2023-07-02T02:53:41;9.77;;;8.95;;
73168;SDS011;61379;59.732;30.468;2023-07-02T02:56:08;10.35;;;9.07;;
73168;SDS011;61379;59.732;30.468;2023-07-02T02:58:35;9.82;;;8.85;;
73168;SDS011;61379;59.732;30.468;2023-07-02T03:01:01;8.52;;;7.72;;
73168;SDS011;61379;59.732;30.468;2023-07-02T03:03:30;11.55;;;9.07;;
73168;SDS011;61379;59.732;30.468;2023-07-02T03:05:59;13.70;;;9.77;;
73168;SDS011;61379;59.732;30.468;2023-07-02T03:08:26;9.90;;;8.63;;
73168;SDS011;61379;59.732;30.468;2023-07-02T03:10:53;11.48;;;9.07;;
73168;SDS011;61379;59.732;30.468;2023-07-02T03:13:20;9.60;;;8.73;;
73168;SDS011;61379;59.732;30.468;2023-07-02T03:15:46;10.18;;;9.13;;
73168;SDS011;61379;59.732;30.468;2023-07-02T03:18:13;10.13;;;9.20;;
73168;SDS011;61379;59.732;30.468;2023-07-02T03:20:41;12.73;;;10.00;;
73168;SDS011;61379;59.732;30.468;2023-07-02T03:23:08;11.25;;;10.15;;
73168;SDS011;61379;59.732;30.468;2023-07-02T03:25:35;15.75;;;9.75;;
73168;SDS011;61379;59.732;30.468;2023-07-02T03:28:02;13.23;;;9.35;;
73168;SDS011;61379;59.732;30.468;2023-07-02T03:30:28;12.48;;;9.40;;
73168;SDS011;61379;59.732;30.468;2023-07-02T03:32:55;10.07;;;9.07;;
73168;SDS011;61379;59.732;30.468;2023-07-02T03:35:22;9.43;;;8.57;;
73168;SDS011;61379;59.732;30.468;2023-07-02T03:37:50;10.25;;;9.25;;
73168;SDS011;61379;59.732;30.468;2023-07-02T03:40:17;9.75;;;8.68;;
73168;SDS011;61379;59.732;30.468;2023-07-02T03:42:44;10.68;;;9.57;;
73168;SDS011;61379;59.732;30.468;2023-07-02T03:45:11;10.75;;;8.93;;
73168;SDS011;61379;59.732;30.468;2023-07-02T03:47:38;9.85;;;8.25;;
73168;SDS011;61379;59.732;30.468;2023-07-02T03:50:05;11.68;;;8.50;;
73168;SDS011;61379;59.732;30.468;2023-07-02T03:52:32;10.07;;;9.02;;
73168;SDS011;61379;59.732;30.468;2023-07-02T03:55:00;11.65;;;9.73;;
73168;SDS011;61379;59.732;30.468;2023-07-02T03:57:29;10.63;;;7.97;;
73168;SDS011;61379;59.732;30.468;2023-07-02T03:59:56;10.13;;;8.57;;
73168;SDS011;61379;59.732;30.468;2023-07-02T04:02:23;11.13;;;9.73;;
73168;SDS011;61379;59.732;30.468;2023-07-02T04:04:50;10.30;;;9.32;;
73168;SDS011;61379;59.732;30.468;2023-07-02T04:07:16;12.30;;;10.98;;
73168;SDS011;61379;59.732;30.468;2023-07-02T04:09:43;10.32;;;9.32;;
73168;SDS011;61379;59.732;30.468;2023-07-02T04:12:11;10.07;;;9.30;;
73168;SDS011;61379;59.732;30.468;2023-07-02T04:14:38;10.25;;;9.30;;
73168;SDS011;61379;59.732;30.468;2023-07-02T04:17:05;12.80;;;11.43;;
73168;SDS011;61379;59.732;30.468;2023-07-02T04:19:32;11.38;;;10.38;;
73168;SDS011;61379;59.732;30.468;2023-07-02T04:21:59;11.20;;;9.93;;
73168;SDS011;61379;59.732;30.468;2023-07-02T04:24:25;11.32;;;10.18;;
73168;SDS011;61379;59.732;30.468;2023-07-02T04:26:52;11.48;;;9.98;;
73168;SDS011;61379;59.732;30.468;2023-07-02T04:29:20;10.70;;;9.70;;
73168;SDS011;61379;59.732;30.468;2023-07-02T04:31:47;10.75;;;9.75;;
73168;SDS011;61379;59.732;30.468;2023-07-02T04:34:14;10.77;;;9.65;;
73168;SDS011;61379;59.732;30.468;2023-07-02T04:36:41;9.38;;;8.57;;
73168;SDS011;61379;59.732;30.468;2023-07-02T04:39:08;10.15;;;9.32;;
73168;SDS011;61379;59.732;30.468;2023-07-02T04:41:36;10.05;;;9.20;;
73168;SDS011;61379;59.732;30.468;2023-07-02T04:44:02;11.15;;;10.15;;
73168;SDS011;61379;59.732;30.468;2023-07-02T04:46:31;10.68;;;9.60;;
73168;SDS011;61379;59.732;30.468;2023-07-02T04:48:57;12.35;;;9.45;;
73168;SDS011;61379;59.732;30.468;2023-07-02T04:51:24;10.32;;;9.35;;
73168;SDS011;61379;59.732;30.468;2023-07-02T04:53:51;11.57;;;10.38;;
73168;SDS011;61379;59.732;30.468;2023-07-02T04:56:17;10.20;;;9.30;;
73168;SDS011;61379;59.732;30.468;2023-07-02T04:58:44;10.27;;;9.18;;
73168;SDS011;61379;59.732;30.468;2023-07-02T05:01:11;11.10;;;10.02;;
73168;SDS011;61379;59.732;30.468;2023-07-02T05:03:39;9.45;;;8.63;;
73168;SDS011;61379;59.732;30.468;2023-07-02T05:06:06;10.38;;;9.38;;
73168;SDS011;61379;59.732;30.468;2023-07-02T05:08:33;9.90;;;8.93;;
73168;SDS011;61379;59.732;30.468;2023-07-02T05:10:59;10.20;;;9.27;;
73168;SDS011;61379;59.732;30.468;2023-07-02T05:13:26;10.20;;;9.15;;
73168;SDS011;61379;59.732;30.468;2023-07-02T05:15:53;10.38;;;9.20;;
73168;SDS011;61379;59.732;30.468;2023-07-02T05:18:20;10.15;;;9.20;;
73168;SDS011;61379;59.732;30.468;2023-07-02T05:20:48;9.05;;;8.32;;
73168;SDS011;61379;59.732;30.468;2023-07-02T05:23:14;9.57;;;8.70;;
73168;SDS011;61379;59.732;30.468;2023-07-02T05:25:41;9.82;;;8.63;;
73168;SDS011;61379;59.732;30.468;2023-07-02T05:28:08;10.00;;;9.00;;
73168;SDS011;61379;59.732;30.468;2023-07-02T05:30:35;9.70;;;8.70;;
73168;SDS011;61379;59.732;30.468;2023-07-02T05:33:01;10.05;;;8.27;;
73168;SDS011;61379;59.732;30.468;2023-07-02T05:35:28;9.70;;;8.80;;
73168;SDS011;61379;59.732;30.468;2023-07-02T05:37:56;10.25;;;9.07;;
73168;SDS011;61379;59.732;30.468;2023-07-02T05:40:23;9.90;;;9.00;;
73168;SDS011;61379;59.732;30.468;2023-07-02T05:42:50;13.80;;;10.35;;
73168;SDS011;61379;59.732;30.468;2023-07-02T05:45:16;9.73;;;8.93;;
73168;SDS011;61379;59.732;30.468;2023-07-02T05:47:43;10.68;;;9.70;;
73168;SDS011;61379;59.732;30.468;2023-07-02T05:50:10;11.00;;;10.20;;
73168;SDS011;61379;59.732;30.468;2023-07-02T05:52:37;10.52;;;9.52;;
73168;SDS011;61379;59.732;30.468;2023-07-02T05:55:07;10.80;;;9.80;;
73168;SDS011;61379;59.732;30.468;2023-07-02T05:57:35;10.25;;;9.35;;
73168;SDS011;61379;59.732;30.468;2023-07-02T06:00:03;9.15;;;8.35;;
73168;SDS011;61379;59.732;30.468;2023-07-02T06:02:31;11.40;;;10.23;;
73168;SDS011;61379;59.732;30.468;2023-07-02T06:04:57;10.20;;;9.27;;
73168;SDS011;61379;59.732;30.468;2023-07-02T06:07:24;10.30;;;9.43;;
73168;SDS011;61379;59.732;30.468;2023-07-02T06:09:51;10.77;;;9.68;;
73168;SDS011;61379;59.732;30.468;2023-07-02T06:12:19;9.40;;;8.60;;
73168;SDS011;61379;59.732;30.468;2023-07-02T06:14:46;12.68;;;10.32;;
73168;SDS011;61379;59.732;30.468;2023-07-02T06:17:13;13.43;;;10.68;;
73168;SDS011;61379;59.732;30.468;2023-07-02T06:19:40;10.15;;;8.85;;
73168;SDS011;61379;59.732;30.468;2023-07-02T06:22:07;12.43;;;8.95;;
73168;SDS011;61379;59.732;30.468;2023-07-02T06:24:33;10.55;;;9.25;;
73168;SDS011;61379;59.732;30.468;2023-07-02T06:27:00;10.93;;;9.45;;
73168;SDS011;61379;59.732;30.468;2023-07-02T06:29:29;9.38;;;8.57;;
73168;SDS011;61379;59.732;30.468;2023-07-02T06:31:56;10.65;;;9.80;;
73168;SDS011;61379;59.732;30.468;2023-07-02T06:34:22;11.88;;;10.77;;
73168;SDS011;61379;59.732;30.468;2023-07-02T06:36:49;10.57;;;9.23;;
73168;SDS011;61379;59.732;30.468;2023-07-02T06:39:16;16.50;;;9.52;;
73168;SDS011;61379;59.732;30.468;2023-07-02T06:41:43;11.60;;;10.45;;
73168;SDS011;61379;59.732;30.468;2023-07-02T06:44:09;11.25;;;10.15;;
73168;SDS011;61379;59.732;30.468;2023-07-02T06:46:37;13.30;;;9.57;;
73168;SDS011;61379;59.732;30.468;2023-07-02T06:49:04;9.93;;;8.98;;
73168;SDS011;61379;59.732;30.468;2023-07-02T06:51:31;10.43;;;9.18;;
73168;SDS011;61379;59.732;30.468;2023-07-02T06:53:58;10.73;;;9.63;;
73168;SDS011;61379;59.732;30.468;2023-07-02T06:56:25;10.35;;;9.45;;
73168;SDS011;61379;59.732;30.468;2023-07-02T06:58:52;10.98;;;9.88;;
73168;SDS011;61379;59.732;30.468;2023-07-02T07:01:18;10.60;;;9.70;;
73168;SDS011;61379;59.732;30.468;2023-07-02T07:03:47;10.43;;;9.50;;
73168;SDS011;61379;59.732;30.468;2023-07-02T07:06:13;10.32;;;9.32;;
73168;SDS011;61379;59.732;30.468;2023-07-02T07:08:40;9.52;;;8.63;;
73168;SDS011;61379;59.732;30.468;2023-07-02T07:11:07;9.98;;;9.00;;
73168;SDS011;61379;59.732;30.468;2023-07-02T07:13:34;11.07;;;9.98;;
73168;SDS011;61379;59.732;30.468;2023-07-02T07:16:00;10.18;;;9.05;;
73168;SDS011;61379;59.732;30.468;2023-07-02T07:18:27;10.65;;;8.98;;
73168;SDS011;61379;59.732;30.468;2023-07-02T07:20:55;9.05;;;8.25;;
73168;SDS011;61379;59.732;30.468;2023-07-02T07:23:22;14.30;;;8.85;;
73168;SDS011;61379;59.732;30.468;2023-07-02T07:25:49;10.15;;;9.15;;
73168;SDS011;61379;59.732;30.468;2023-07-02T07:28:16;10.23;;;9.23;;
73168;SDS011;61379;59.732;30.468;2023-07-02T07:30:42;12.18;;;10.68;;
73168;SDS011;61379;59.732;30.468;2023-07-02T07:33:09;10.10;;;9.15;;
73168;SDS011;61379;59.732;30.468;2023-07-02T07:35:36;10.27;;;9.25;;
73168;SDS011;61379;59.732;30.468;2023-07-02T07:38:04;10.50;;;9.50;;
73168;SDS011;61379;59.732;30.468;2023-07-02T07:40:31;12.45;;;9.88;;
73168;SDS011;61379;59.732;30.468;2023-07-02T07:42:58;9.82;;;8.93;;
73168;SDS011;61379;59.732;30.468;2023-07-02T07:45:24;9.00;;;8.15;;
73168;SDS011;61379;59.732;30.468;2023-07-02T07:47:51;9.85;;;8.93;;
73168;SDS011;61379;59.732;30.468;2023-07-02T07:50:18;9.32;;;8.40;;
73168;SDS011;61379;59.732;30.468;2023-07-02T07:52:45;8.52;;;7.82;;
73168;SDS011;61379;59.732;30.468;2023-07-02T07:55:13;8.98;;;8.10;;
73168;SDS011;61379;59.732;30.468;2023-07-02T07:57:39;9.35;;;8.50;;
73168;SDS011;61379;59.732;30.468;2023-07-02T08:00:06;9.20;;;8.25;;
73168;SDS011;61379;59.732;30.468;2023-07-02T08:02:34;12.23;;;8.10;;
73168;SDS011;61379;59.732;30.468;2023-07-02T08:05:01;9.23;;;8.13;;
73168;SDS011;61379;59.732;30.468;2023-07-02T08:07:30;9.73;;;8.65;;
73168;SDS011;61379;59.732;30.468;2023-07-02T08:09:57;8.70;;;7.82;;
73168;SDS011;61379;59.732;30.468;2023-07-02T08:12:26;7.90;;;7.07;;
73168;SDS011;61379;59.732;30.468;2023-07-02T08:14:54;7.28;;;6.65;;
73168;SDS011;61379;59.732;30.468;2023-07-02T08:17:21;7.70;;;6.72;;
73168;SDS011;61379;59.732;30.468;2023-07-02T08:19:48;7.45;;;6.85;;
73168;SDS011;61379;59.732;30.468;2023-07-02T08:22:14;8.15;;;7.45;;
73168;SDS011;61379;59.732;30.468;2023-07-02T08:24:41;10.90;;;7.50;;
73168;SDS011;61379;59.732;30.468;2023-07-02T08:27:08;8.88;;;8.07;;
73168;SDS011;61379;59.732;30.468;2023-07-02T08:29:37;9.13;;;8.15;;
73168;SDS011;61379;59.732;30.468;2023-07-02T08:32:04;9.52;;;8.23;;
73168;SDS011;61379;59.732;30.468;2023-07-02T08:34:31;9.27;;;8.45;;
73168;SDS011;61379;59.732;30.468;2023-07-02T08:36:57;9.65;;;8.27;;
73168;SDS011;61379;59.732;30.468;2023-07-02T08:39:24;9.45;;;8.50;;
73168;SDS011;61379;59.732;30.468;2023-07-02T08:41:51;9.02;;;7.60;;
73168;SDS011;61379;59.732;30.468;2023-07-02T08:44:19;9.75;;;8.27;;
73168;SDS011;61379;59.732;30.468;2023-07-02T08:46:47;9.07;;;7.95;;
73168;SDS011;61379;59.732;30.468;2023-07-02T08:49:16;9.48;;;8.57;;
73168;SDS011;61379;59.732;30.468;2023-07-02T08:51:44;8.27;;;7.47;;
73168;SDS011;61379;59.732;30.468;2023-07-02T08:54:11;8.73;;;8.02;;
73168;SDS011;61379;59.732;30.468;2023-07-02T08:56:37;8.73;;;7.93;;
73168;SDS011;61379;59.732;30.468;2023-07-02T08:59:06;9.50;;;7.95;;
73168;SDS011;61379;59.732;30.468;2023-07-02T09:01:33;8.73;;;7.78;;
73168;SDS011;61379;59.732;30.468;2023-07-02T09:04:01;8.73;;;7.45;;
73168;SDS011;61379;59.732;30.468;2023-07-02T09:06:28;9.80;;;8.80;;
73168;SDS011;61379;59.732;30.468;2023-07-02T09:09:03;9.20;;;8.32;;
73168;SDS011;61379;59.732;30.468;2023-07-02T09:11:29;10.20;;;9.10;;
73168;SDS011;61379;59.732;30.468;2023-07-02T09:13:56;9.68;;;8.77;;
73168;SDS011;61379;59.732;30.468;2023-07-02T09:16:27;9.10;;;8.20;;
73168;SDS011;61379;59.732;30.468;2023-07-02T09:19:02;9.48;;;8.27;;
73168;SDS011;61379;59.732;30.468;2023-07-02T09:21:38;8.93;;;8.10;;
73168;SDS011;61379;59.732;30.468;2023-07-02T09:24:15;9.27;;;8.30;;
73168;SDS011;61379;59.732;30.468;2023-07-02T09:26:43;8.55;;;7.65;;
73168;SDS011;61379;59.732;30.468;2023-07-02T09:29:10;11.15;;;8.20;;
73168;SDS011;61379;59.732;30.468;2023-07-02T09:31:43;8.38;;;7.75;;
73168;SDS011;61379;59.732;30.468;2023-07-02T09:34:11;8.80;;;8.10;;
73168;SDS011;61379;59.732;30.468;2023-07-02T09:36:38;9.48;;;8.52;;
73168;SDS011;61379;59.732;30.468;2023-07-02T09:39:06;9.65;;;8.77;;
73168;SDS011;61379;59.732;30.468;2023-07-02T09:41:33;9.10;;;8.40;;
73168;SDS011;61379;59.732;30.468;2023-07-02T09:44:00;9.30;;;8.45;;
73168;SDS011;61379;59.732;30.468;2023-07-02T09:46:27;10.45;;;7.40;;
73168;SDS011;61379;59.732;30.468;2023-07-02T09:48:54;7.80;;;7.10;;
73168;SDS011;61379;59.732;30.468;2023-07-02T09:51:23;9.10;;;8.30;;
73168;SDS011;61379;59.732;30.468;2023-07-02T09:53:50;8.68;;;8.07;;
73168;SDS011;61379;59.732;30.468;2023-07-02T09:56:17;9.02;;;8.20;;
73168;SDS011;61379;59.732;30.468;2023-07-02T09:58:46;8.77;;;7.85;;
73168;SDS011;61379;59.732;30.468;2023-07-02T10:01:13;8.95;;;8.13;;
73168;SDS011;61379;59.732;30.468;2023-07-02T10:03:40;9.95;;;8.68;;
73168;SDS011;61379;59.732;30.468;2023-07-02T10:06:07;8.65;;;7.93;;
73168;SDS011;61379;59.732;30.468;2023-07-02T10:08:35;9.23;;;8.50;;
73168;SDS011;61379;59.732;30.468;2023-07-02T10:11:11;9.02;;;8.13;;
73168;SDS011;61379;59.732;30.468;2023-07-02T10:13:39;8.35;;;7.65;;
73168;SDS011;61379;59.732;30.468;2023-07-02T10:16:06;8.15;;;7.50;;
73168;SDS011;61379;59.732;30.468;2023-07-02T10:18:33;8.65;;;7.78;;
73168;SDS011;61379;59.732;30.468;2023-07-02T10:21:12;8.60;;;7.30;;
73168;SDS011;61379;59.732;30.468;2023-07-02T10:23:40;8.20;;;7.50;;
73168;SDS011;61379;59.732;30.468;2023-07-02T10:26:10;8.40;;;7.70;;
73168;SDS011;61379;59.732;30.468;2023-07-02T10:28:37;7.90;;;7.28;;
73168;SDS011;61379;59.732;30.468;2023-07-02T10:31:03;7.57;;;7.03;;
73168;SDS011;61379;59.732;30.468;2023-07-02T10:33:30;8.00;;;7.30;;
73168;SDS011;61379;59.732;30.468;2023-07-02T10:35:57;8.13;;;7.32;;
73168;SDS011;61379;59.732;30.468;2023-07-02T10:38:24;7.78;;;7.07;;
73168;SDS011;61379;59.732;30.468;2023-07-02T10:40:56;8.00;;;7.38;;
73168;SDS011;61379;59.732;30.468;2023-07-02T10:43:26;7.80;;;7.10;;
73168;SDS011;61379;59.732;30.468;2023-07-02T10:45:54;8.27;;;7.55;;
73168;SDS011;61379;59.732;30.468;2023-07-02T10:48:21;8.57;;;7.78;;
73168;SDS011;61379;59.732;30.468;2023-07-02T10:50:48;7.55;;;6.90;;
73168;SDS011;61379;59.732;30.468;2023-07-02T10:53:15;8.43;;;7.63;;
73168;SDS011;61379;59.732;30.468;2023-07-02T10:55:42;8.45;;;7.00;;
73168;SDS011;61379;59.732;30.468;2023-07-02T10:58:11;7.00;;;6.50;;
73168;SDS011;61379;59.732;30.468;2023-07-02T11:00:44;7.55;;;6.95;;
73168;SDS011;61379;59.732;30.468;2023-07-02T11:03:18;7.85;;;7.20;;
73168;SDS011;61379;59.732;30.468;2023-07-02T11:05:45;8.15;;;7.55;;
73168;SDS011;61379;59.732;30.468;2023-07-02T11:08:12;8.38;;;7.75;;
73168;SDS011;61379;59.732;30.468;2023-07-02T11:10:39;7.68;;;7.13;;
73168;SDS011;61379;59.732;30.468;2023-07-02T11:13:17;8.70;;;7.82;;
73168;SDS011;61379;59.732;30.468;2023-07-02T11:15:44;8.13;;;7.53;;
73168;SDS011;61379;59.732;30.468;2023-07-02T11:18:11;8.23;;;7.63;;
73168;SDS011;61379;59.732;30.468;2023-07-02T11:20:39;8.13;;;7.07;;
73168;SDS011;61379;59.732;30.468;2023-07-02T11:23:16;6.55;;;6.05;;
73168;SDS011;61379;59.732;30.468;2023-07-02T11:25:53;6.90;;;6.30;;
73168;SDS011;61379;59.732;30.468;2023-07-02T11:28:21;8.85;;;7.13;;
73168;SDS011;61379;59.732;30.468;2023-07-02T11:30:48;8.45;;;7.85;;
73168;SDS011;61379;59.732;30.468;2023-07-02T11:33:15;8.73;;;7.93;;
73168;SDS011;61379;59.732;30.468;2023-07-02T11:35:42;7.90;;;7.38;;
73168;SDS011;61379;59.732;30.468;2023-07-02T11:38:09;7.53;;;6.93;;
73168;SDS011;61379;59.732;30.468;2023-07-02T11:40:36;8.15;;;7.18;;
73168;SDS011;61379;59.732;30.468;2023-07-02T11:43:03;7.32;;;6.57;;
73168;SDS011;61379;59.732;30.468;2023-07-02T11:45:32;8.25;;;7.45;;
73168;SDS011;61379;59.732;30.468;2023-07-02T11:47:59;8.75;;;7.78;;
73168;SDS011;61379;59.732;30.468;2023-07-02T11:50:25;7.80;;;7.13;;
73168;SDS011;61379;59.732;30.468;2023-07-02T11:52:52;7.93;;;7.18;;
73168;SDS011;61379;59.732;30.468;2023-07-02T11:55:19;7.85;;;7.25;;
73168;SDS011;61379;59.732;30.468;2023-07-02T11:57:46;9.63;;;7.28;;
73168;SDS011;61379;59.732;30.468;2023-07-02T12:00:14;7.88;;;7.28;;
73168;SDS011;61379;59.732;30.468;2023-07-02T12:02:42;9.07;;;7.13;;
73168;SDS011;61379;59.732;30.468;2023-07-02T12:05:09;8.07;;;7.38;;
73168;SDS011;61379;59.732;30.468;2023-07-02T12:07:36;8.13;;;7.32;;
73168;SDS011;61379;59.732;30.468;2023-07-02T12:10:03;8.07;;;7.20;;
73168;SDS011;61379;59.732;30.468;2023-07-02T12:12:30;9.15;;;8.27;;
73168;SDS011;61379;59.732;30.468;2023-07-02T12:14:57;8.30;;;7.55;;
73168;SDS011;61379;59.732;30.468;2023-07-02T12:17:23;7.40;;;6.90;;
73168;SDS011;61379;59.732;30.468;2023-07-02T12:19:51;8.50;;;7.60;;
73168;SDS011;61379;59.732;30.468;2023-07-02T12:22:18;8.70;;;8.05;;
73168;SDS011;61379;59.732;30.468;2023-07-02T12:24:47;8.40;;;7.60;;
73168;SDS011;61379;59.732;30.468;2023-07-02T12:27:15;8.40;;;7.60;;
73168;SDS011;61379;59.732;30.468;2023-07-02T12:29:42;9.13;;;8.23;;
73168;SDS011;61379;59.732;30.468;2023-07-02T12:32:09;9.55;;;7.82;;
73168;SDS011;61379;59.732;30.468;2023-07-02T12:34:35;8.85;;;7.93;;
73168;SDS011;61379;59.732;30.468;2023-07-02T12:37:04;7.85;;;7.10;;
73168;SDS011;61379;59.732;30.468;2023-07-02T12:39:31;9.35;;;8.00;;
73168;SDS011;61379;59.732;30.468;2023-07-02T12:41:57;8.57;;;7.68;;
73168;SDS011;61379;59.732;30.468;2023-07-02T12:44:24;8.27;;;7.55;;
73168;SDS011;61379;59.732;30.468;2023-07-02T12:46:51;7.72;;;7.07;;
73168;SDS011;61379;59.732;30.468;2023-07-02T12:49:18;8.45;;;7.68;;
73168;SDS011;61379;59.732;30.468;2023-07-02T12:51:44;8.50;;;7.25;;
73168;SDS011;61379;59.732;30.468;2023-07-02T12:54:13;7.93;;;7.32;;
73168;SDS011;61379;59.732;30.468;2023-07-02T12:56:40;8.40;;;7.63;;
73168;SDS011;61379;59.732;30.468;2023-07-02T12:59:07;7.65;;;6.95;;
73168;SDS011;61379;59.732;30.468;2023-07-02T13:01:34;6.63;;;6.13;;
73168;SDS011;61379;59.732;30.468;2023-07-02T13:04:01;8.02;;;7.40;;
73168;SDS011;61379;59.732;30.468;2023-07-02T13:06:29;9.75;;;6.97;;
73168;SDS011;61379;59.732;30.468;2023-07-02T13:08:59;7.55;;;7.05;;
73168;SDS011;61379;59.732;30.468;2023-07-02T13:11:27;6.80;;;6.30;;
73168;SDS011;61379;59.732;30.468;2023-07-02T13:13:54;6.75;;;6.22;;
73168;SDS011;61379;59.732;30.468;2023-07-02T13:16:21;7.40;;;6.70;;
73168;SDS011;61379;59.732;30.468;2023-07-02T13:18:49;6.70;;;5.95;;
73168;SDS011;61379;59.732;30.468;2023-07-02T13:21:16;7.15;;;6.53;;
73168;SDS011;61379;59.732;30.468;2023-07-02T13:23:42;6.38;;;5.88;;
73168;SDS011;61379;59.732;30.468;2023-07-02T13:26:09;7.30;;;6.72;;
73168;SDS011;61379;59.732;30.468;2023-07-02T13:28:37;6.72;;;6.13;;
73168;SDS011;61379;59.732;30.468;2023-07-02T13:31:04;6.25;;;5.75;;
73168;SDS011;61379;59.732;30.468;2023-07-02T13:33:31;6.97;;;6.35;;
73168;SDS011;61379;59.732;30.468;2023-07-02T13:35:58;7.65;;;7.00;;
73168;SDS011;61379;59.732;30.468;2023-07-02T13:38:25;9.32;;;7.32;;
73168;SDS011;61379;59.732;30.468;2023-07-02T13:40:52;8.13;;;7.43;;
73168;SDS011;61379;59.732;30.468;2023-07-02T13:43:19;7.90;;;7.10;;
73168;SDS011;61379;59.732;30.468;2023-07-02T13:45:47;7.57;;;6.88;;
73168;SDS011;61379;59.732;30.468;2023-07-02T13:48:14;7.88;;;7.07;;
73168;SDS011;61379;59.732;30.468;2023-07-02T13:50:41;7.57;;;6.88;;
73168;SDS011;61379;59.732;30.468;2023-07-02T13:53:07;6.70;;;6.10;;
73168;SDS011;61379;59.732;30.468;2023-07-02T13:55:34;7.30;;;6.70;;
73168;SDS011;61379;59.732;30.468;2023-07-02T13:58:01;9.75;;;6.88;;
73168;SDS011;61379;59.732;30.468;2023-07-02T14:00:29;9.57;;;7.15;;
73168;SDS011;61379;59.732;30.468;2023-07-02T14:02:56;8.85;;;7.30;;
73168;SDS011;61379;59.732;30.468;2023-07-02T14:05:23;9.77;;;7.25;;
73168;SDS011;61379;59.732;30.468;2023-07-02T14:07:50;7.65;;;6.80;;
73168;SDS011;61379;59.732;30.468;2023-07-02T14:10:17;8.02;;;7.43;;
73168;SDS011;61379;59.732;30.468;2023-07-02T14:12:43;9.45;;;8.68;;
73168;SDS011;61379;59.732;30.468;2023-07-02T14:15:10;10.05;;;6.93;;
73168;SDS011;61379;59.732;30.468;2023-07-02T14:17:38;8.20;;;7.50;;
73168;SDS011;61379;59.732;30.468;2023-07-02T14:20:06;7.65;;;6.65;;
73168;SDS011;61379;59.732;30.468;2023-07-02T14:22:33;7.82;;;7.10;;
73168;SDS011;61379;59.732;30.468;2023-07-02T14:25:00;9.93;;;7.22;;
73168;SDS011;61379;59.732;30.468;2023-07-02T14:27:29;8.48;;;7.78;;
73168;SDS011;61379;59.732;30.468;2023-07-02T14:29:55;8.07;;;7.20;;